createdAt,value
2018-04-11T00:01:02.988Z,76.15
2018-04-11T00:03:31.172Z,76.71
2018-04-11T00:05:59.320Z,76.92
2018-04-11T00:08:29.320Z,76.83
2018-04-11T00:10:57.493Z,76.85
2018-04-11T00:13:25.676Z,77.15
2018-04-11T00:16:07.091Z,77.42
2018-04-11T00:18:35.252Z,77.91
2018-04-11T00:21:03.431Z,77.96
2018-04-11T00:23:31.603Z,78.19
2018-04-11T00:25:59.751Z,78.32
2018-04-11T00:28:27.953Z,78.15
2018-04-11T00:30:56.118Z,78.34
2018-04-11T00:33:24.269Z,78.65
2018-04-11T00:35:52.430Z,79.01
2018-04-11T00:38:20.604Z,79.31
2018-04-11T00:40:49.808Z,79.59
2018-04-11T00:43:17.965Z,79.90
2018-04-11T00:45:46.133Z,79.97
2018-04-11T00:48:15.935Z,80.13
2018-04-11T00:50:44.092Z,80.39
2018-04-11T00:53:25.543Z,80.44
2018-04-11T00:55:53.706Z,80.70
2018-04-11T00:58:21.862Z,80.88
2018-04-11T01:00:50.023Z,81.12
2018-04-11T01:03:18.189Z,81.66
2018-04-11T01:05:46.336Z,81.71
2018-04-11T01:08:14.518Z,81.65
2018-04-11T01:10:42.663Z,81.78
2018-04-11T01:13:10.829Z,81.69
2018-04-11T01:15:38.995Z,81.62
2018-04-11T01:18:07.676Z,81.87
2018-04-11T01:20:35.886Z,82.15
2018-04-11T01:23:04.039Z,82.00
2018-04-11T01:25:32.209Z,82.13
2018-04-11T01:28:00.390Z,81.83
2018-04-11T01:30:28.555Z,81.88
2018-04-11T01:32:56.692Z,81.78
2018-04-11T01:35:24.864Z,82.09
2018-04-11T01:37:53.018Z,81.95
2018-04-11T01:40:21.261Z,82.08
2018-04-11T01:42:49.414Z,82.25
2018-04-11T01:47:52.371Z,82.46
2018-04-11T01:50:24.358Z,82.40
2018-04-11T01:52:58.859Z,82.40
2018-04-11T01:55:27.053Z,82.40
2018-04-11T01:57:55.192Z,82.38
2018-04-11T02:00:23.337Z,82.38
2018-04-11T02:02:51.494Z,82.56
2018-04-11T02:05:19.654Z,82.76
2018-04-11T02:07:47.878Z,83.16
2018-04-11T02:10:16.170Z,83.26
2018-04-11T02:12:44.393Z,83.21
2018-04-11T02:15:12.635Z,83.39
2018-04-11T02:17:40.793Z,83.58
2018-04-11T02:20:08.959Z,83.49
2018-04-11T02:22:37.098Z,83.35
2018-04-11T02:25:05.292Z,83.42
2018-04-11T02:27:33.443Z,83.56
2018-04-11T02:30:07.941Z,83.68
2018-04-11T02:32:36.999Z,83.21
2018-04-11T02:35:05.163Z,83.50
2018-04-11T02:37:33.324Z,83.79
2018-04-11T02:40:01.593Z,83.78
2018-04-11T02:42:29.797Z,84.11
2018-04-11T02:44:57.965Z,84.00
2018-04-11T02:47:26.128Z,83.94
2018-04-11T02:49:54.291Z,84.15
2018-04-11T02:52:23.726Z,84.05
2018-04-11T02:54:51.906Z,84.21
2018-04-11T02:57:20.128Z,83.90
2018-04-11T02:59:48.294Z,84.04
2018-04-11T03:02:16.454Z,83.88
2018-04-11T03:04:44.656Z,83.72
2018-04-11T03:07:12.835Z,83.94
2018-04-11T03:09:41.012Z,83.66
2018-04-11T03:12:09.263Z,84.08
2018-04-11T03:14:37.422Z,84.23
2018-04-11T03:17:05.870Z,84.56
2018-04-11T03:19:34.024Z,84.72
2018-04-11T03:22:02.219Z,85.04
2018-04-11T03:27:09.547Z,85.05
2018-04-11T03:29:37.800Z,85.07
2018-04-11T03:32:07.030Z,85.23
2018-04-11T03:34:36.703Z,85.24
2018-04-11T03:37:04.882Z,85.54
2018-04-11T03:39:33.050Z,85.42
2018-04-11T03:42:02.008Z,84.99
2018-04-11T03:44:30.147Z,84.99
2018-04-11T03:46:58.318Z,84.76
2018-04-11T03:49:26.521Z,85.02
2018-04-11T03:51:54.691Z,85.76
2018-04-11T03:54:22.859Z,85.83
2018-04-11T03:56:51.030Z,85.99
2018-04-11T03:59:19.225Z,85.97
2018-04-11T04:01:47.492Z,85.49
2018-04-11T04:04:15.648Z,85.45
2018-04-11T04:06:43.843Z,85.34
2018-04-11T04:09:18.209Z,85.25
2018-04-11T04:11:46.405Z,85.68
2018-04-11T04:14:26.144Z,85.42
2018-04-11T04:17:06.167Z,85.32
2018-04-11T04:22:43.623Z,86.11
2018-04-11T04:25:12.094Z,86.20
2018-04-11T04:27:43.176Z,86.55
2018-04-11T04:30:14.051Z,86.53
2018-04-11T04:32:44.141Z,87.31
2018-04-11T04:35:14.989Z,87.33
2018-04-11T04:37:44.899Z,87.14
2018-04-11T04:40:13.993Z,86.94
2018-04-11T04:42:42.285Z,86.48
2018-04-11T04:45:10.753Z,86.17
2018-04-11T04:47:41.733Z,86.20
2018-04-11T04:50:12.752Z,86.55
2018-04-11T04:52:43.693Z,86.68
2018-04-11T04:55:13.819Z,87.38
2018-04-11T04:57:45.353Z,88.17
2018-04-11T05:00:13.705Z,88.58
2018-04-11T05:02:43.780Z,88.48
2018-04-11T05:05:12.950Z,88.35
2018-04-11T05:07:42.073Z,88.24
2018-04-11T05:10:11.147Z,88.66
2018-04-11T05:12:42.196Z,88.86
2018-04-11T05:15:10.545Z,88.45
2018-04-11T05:17:40.638Z,87.96
2018-04-11T05:20:09.207Z,87.59
2018-04-11T05:22:37.557Z,87.57
2018-04-11T05:25:08.527Z,87.52
2018-04-11T05:27:38.608Z,88.07
2018-04-11T05:30:07.118Z,88.43
2018-04-11T05:32:36.116Z,88.35
2018-04-11T05:35:06.139Z,88.30
2018-04-11T05:37:39.059Z,88.54
2018-04-11T05:40:09.203Z,88.41
2018-04-11T05:42:39.237Z,88.61
2018-04-11T05:45:12.626Z,88.83
2018-04-11T05:47:42.749Z,88.98
2018-04-11T05:50:13.217Z,89.15
2018-04-11T05:52:42.244Z,89.31
2018-04-11T05:55:14.804Z,89.25
2018-04-11T05:57:43.188Z,89.05
2018-04-11T06:00:13.335Z,88.82
2018-04-11T06:05:36.755Z,88.07
2018-04-11T06:08:06.812Z,88.13
2018-04-11T06:10:35.131Z,87.82
2018-04-11T06:13:05.194Z,87.44
2018-04-11T06:15:36.158Z,86.80
2018-04-11T06:18:06.074Z,86.31
2018-04-11T06:20:35.140Z,86.30
2018-04-11T06:23:05.279Z,86.36
2018-04-11T06:25:36.203Z,86.09
2018-04-11T06:28:05.244Z,85.94
2018-04-11T06:30:36.072Z,85.70
2018-04-11T06:33:05.130Z,85.46
2018-04-11T06:35:33.617Z,85.04
2018-04-11T06:38:02.814Z,84.56
2018-04-11T06:40:31.334Z,84.26
2018-04-11T06:43:01.576Z,84.13
2018-04-11T06:45:30.615Z,83.86
2018-04-11T06:48:00.576Z,83.61
2018-04-11T06:50:30.520Z,83.51
2018-04-11T06:53:04.731Z,83.31
2018-04-11T06:55:33.300Z,83.31
2018-04-11T06:58:01.633Z,83.48
2018-04-11T07:00:30.022Z,82.72
2018-04-11T07:02:58.385Z,82.03
2018-04-11T07:05:31.771Z,81.95
2018-04-11T07:08:04.722Z,81.33
2018-04-11T07:10:33.287Z,81.06
2018-04-11T07:13:03.483Z,80.98
2018-04-11T07:15:32.605Z,81.14
2018-04-11T07:18:02.548Z,80.02
2018-04-11T07:20:32.750Z,79.68
2018-04-11T07:23:03.852Z,79.33
2018-04-11T07:25:32.115Z,79.87
2018-04-11T07:28:00.383Z,79.70
2018-04-11T07:30:31.369Z,79.01
2018-04-11T07:32:59.688Z,77.80
2018-04-11T07:35:28.170Z,77.43
2018-04-11T07:37:56.729Z,77.34
2018-04-11T07:40:26.814Z,76.97
2018-04-11T07:42:55.265Z,75.67
2018-04-11T07:45:25.342Z,75.35
2018-04-11T07:47:56.330Z,74.54
2018-04-11T07:50:25.436Z,73.26
2018-04-11T07:52:53.741Z,71.47
2018-04-11T07:55:29.402Z,72.84
2018-04-11T07:57:59.672Z,72.72
2018-04-11T08:00:31.046Z,74.43
2018-04-11T08:03:01.964Z,74.58
2018-04-11T08:05:30.357Z,73.66
2018-04-11T08:07:58.658Z,69.07
2018-04-11T08:10:28.655Z,70.41
2018-04-11T08:12:57.245Z,68.82
2018-04-11T08:15:26.247Z,69.16
2018-04-11T08:17:54.930Z,67.69
2018-04-11T08:20:26.977Z,67.00
2018-04-11T08:22:55.279Z,66.29
2018-04-11T08:25:45.774Z,64.77
2018-04-11T08:28:15.961Z,63.75
2018-04-11T08:30:46.051Z,63.55
2018-04-11T08:33:16.139Z,64.25
2018-04-11T08:35:50.229Z,64.69
2018-04-11T08:38:20.323Z,64.23
2018-04-11T08:40:50.497Z,60.98
2018-04-11T08:43:19.582Z,61.26
2018-04-11T08:45:48.701Z,57.91
2018-04-11T08:48:20.961Z,58.25
2018-04-11T08:50:51.047Z,57.32
2018-04-11T08:53:20.192Z,56.86
2018-04-11T08:55:48.789Z,58.11
2018-04-11T08:58:30.317Z,59.56
2018-04-11T09:01:00.384Z,61.35
2018-04-11T09:03:30.582Z,60.79
2018-04-11T09:06:00.519Z,61.49
2018-04-11T09:08:32.164Z,61.44
2018-04-11T09:11:02.225Z,60.89
2018-04-11T09:13:33.037Z,60.33
2018-04-11T09:16:01.312Z,60.08
2018-04-11T09:18:30.319Z,60.50
2018-04-11T09:20:59.433Z,61.12
2018-04-11T09:23:29.421Z,59.01
2018-04-11T09:25:59.658Z,58.63
2018-04-11T09:28:30.652Z,58.50
2018-04-11T09:31:00.875Z,57.24
2018-04-11T09:33:29.245Z,56.17
2018-04-11T09:35:59.265Z,56.16
2018-04-11T09:38:44.599Z,57.67
2018-04-11T09:41:27.333Z,57.13
2018-04-11T09:43:57.452Z,56.27
2018-04-11T09:46:27.560Z,57.07
2018-04-11T09:48:57.370Z,57.31
2018-04-11T09:51:27.392Z,58.17
2018-04-11T09:53:57.424Z,57.79
2018-04-11T09:56:26.810Z,58.54
2018-04-11T09:58:56.905Z,57.33
2018-04-11T10:01:45.183Z,57.75
2018-04-11T10:04:13.671Z,57.75
2018-04-11T10:06:42.734Z,56.41
2018-04-11T10:09:16.559Z,56.42
2018-04-11T10:11:45.032Z,56.47
2018-04-11T10:14:13.438Z,55.51
2018-04-11T10:16:43.420Z,56.68
2018-04-11T10:19:14.936Z,55.21
2018-04-11T10:21:45.884Z,55.51
2018-04-11T10:24:17.872Z,55.53
2018-04-11T10:26:46.120Z,55.18
2018-04-11T10:29:19.394Z,55.35
2018-04-11T10:31:49.418Z,55.53
2018-04-11T10:34:19.522Z,55.03
2018-04-11T10:36:49.671Z,55.12
2018-04-11T10:39:26.957Z,55.44
2018-04-11T10:41:56.160Z,55.55
2018-04-11T10:44:26.396Z,54.66
2018-04-11T10:46:56.406Z,52.98
2018-04-11T10:49:24.992Z,55.17
2018-04-11T10:51:54.977Z,53.14
2018-04-11T10:54:24.930Z,52.90
2018-04-11T10:56:55.016Z,52.62
2018-04-11T10:59:23.321Z,50.55
2018-04-11T11:01:54.356Z,50.78
2018-04-11T11:04:31.908Z,52.42
2018-04-11T11:07:03.055Z,52.12
2018-04-11T11:09:33.206Z,51.34
2018-04-11T11:12:03.358Z,50.60
2018-04-11T11:14:33.540Z,52.48
2018-04-11T11:17:02.688Z,50.80
2018-04-11T11:19:43.297Z,50.57
2018-04-11T11:22:13.531Z,50.62
2018-04-11T11:24:50.142Z,51.06
2018-04-11T11:27:19.242Z,50.35
2018-04-11T11:29:49.033Z,50.60
2018-04-11T11:32:20.084Z,50.42
2018-04-11T11:34:50.195Z,51.86
2018-04-11T11:37:31.077Z,51.50
2018-04-11T11:39:59.537Z,49.35
2018-04-11T11:42:29.579Z,49.14
2018-04-11T11:45:03.723Z,49.99
2018-04-11T11:47:39.920Z,48.76
2018-04-11T11:50:09.853Z,49.63
2018-04-11T11:52:38.876Z,49.57
2018-04-11T11:55:10.241Z,49.62
2018-04-11T11:57:40.362Z,47.32
2018-04-11T12:00:10.426Z,46.88
2018-04-11T12:02:44.683Z,46.81
2018-04-11T12:05:12.978Z,47.27
2018-04-11T12:07:41.339Z,48.21
2018-04-11T12:10:12.281Z,46.61
2018-04-11T12:12:47.770Z,46.02
2018-04-11T12:15:16.112Z,46.43
2018-04-11T12:17:44.494Z,45.52
2018-04-11T12:20:14.437Z,46.95
2018-04-11T12:22:46.093Z,48.21
2018-04-11T12:25:16.653Z,46.44
2018-04-11T12:27:45.090Z,44.02
2018-04-11T12:30:13.486Z,43.81
2018-04-11T12:32:43.429Z,44.17
2018-04-11T12:35:13.402Z,44.85
2018-04-11T12:37:43.522Z,43.93
2018-04-11T12:40:13.719Z,44.47
2018-04-11T12:42:42.757Z,45.34
2018-04-11T12:45:16.882Z,44.75
2018-04-11T12:47:45.351Z,44.93
2018-04-11T12:50:13.846Z,45.84
2018-04-11T12:52:45.499Z,45.26
2018-04-11T12:55:13.816Z,44.80
2018-04-11T12:57:42.853Z,46.44
2018-04-11T13:00:12.828Z,44.29
2018-04-11T13:02:41.275Z,44.54
2018-04-11T13:05:09.674Z,44.85
2018-04-11T13:07:37.971Z,45.20
2018-04-11T13:10:08.005Z,45.61
2018-04-11T13:12:36.445Z,43.48
2018-04-11T13:15:06.551Z,43.41
2018-04-11T13:17:36.515Z,44.81
2018-04-11T13:20:07.056Z,44.71
2018-04-11T13:22:39.508Z,44.16
2018-04-11T13:25:12.799Z,44.20
2018-04-11T13:27:41.274Z,45.12
2018-04-11T13:30:12.234Z,43.00
2018-04-11T13:32:40.598Z,42.86
2018-04-11T13:35:08.884Z,42.87
2018-04-11T13:37:48.946Z,42.67
2018-04-11T13:40:19.749Z,42.14
2018-04-11T13:42:48.148Z,42.33
2018-04-11T13:45:32.853Z,42.82
2018-04-11T13:48:01.187Z,40.47
2018-04-11T13:50:29.673Z,40.64
2018-04-11T13:52:58.054Z,39.68
2018-04-11T13:55:30.819Z,39.98
2018-04-11T13:58:09.656Z,41.09
2018-04-11T14:00:39.598Z,40.06
2018-04-11T14:03:07.979Z,40.00
2018-04-11T14:05:38.075Z,40.69
2018-04-11T14:08:07.202Z,40.72
2018-04-11T14:10:37.236Z,40.50
2018-04-11T14:13:09.141Z,41.22
2018-04-11T14:15:40.000Z,41.24
2018-04-11T14:20:41.499Z,39.79
2018-04-11T14:23:09.738Z,39.62
2018-04-11T14:25:39.885Z,38.15
2018-04-11T14:28:08.263Z,38.23
2018-04-11T14:30:37.092Z,36.61
2018-04-11T14:33:05.421Z,38.06
2018-04-11T14:35:37.647Z,38.06
2018-04-11T14:38:07.782Z,38.27
2018-04-11T14:40:37.127Z,37.58
2018-04-11T14:43:05.514Z,36.50
2018-04-11T14:45:39.211Z,36.04
2018-04-11T14:48:09.429Z,36.43
2018-04-11T14:50:38.887Z,35.37
2018-04-11T14:53:10.915Z,33.50
2018-04-11T14:55:40.010Z,34.29
2018-04-11T14:58:13.443Z,34.50
2018-04-11T15:00:43.737Z,34.18
2018-04-11T15:03:12.226Z,35.84
2018-04-11T15:05:42.291Z,35.32
2018-04-11T15:08:15.433Z,36.28
2018-04-11T15:10:45.564Z,36.28
2018-04-11T15:13:15.665Z,36.33
2018-04-11T15:15:43.931Z,35.20
2018-04-11T15:18:12.437Z,35.59
2018-04-11T15:20:40.835Z,36.06
2018-04-11T15:23:10.870Z,35.69
2018-04-11T15:25:40.563Z,35.42
2018-04-11T15:28:11.935Z,35.86
2018-04-11T15:30:46.947Z,37.52
2018-04-11T15:33:36.723Z,38.59
2018-04-11T15:36:06.761Z,39.58
2018-04-11T15:38:36.350Z,40.12
2018-04-11T15:43:58.778Z,41.10
2018-04-11T15:46:38.702Z,41.35
2018-04-11T15:49:09.216Z,41.09
2018-04-11T15:51:42.018Z,41.13
2018-04-11T15:54:10.346Z,40.12
2018-04-11T15:56:41.269Z,39.98
2018-04-11T15:59:11.358Z,39.87
2018-04-11T16:01:45.036Z,39.63
2018-04-11T16:04:15.139Z,39.70
2018-04-11T16:06:50.468Z,40.32
2018-04-11T16:09:19.602Z,40.60
2018-04-11T16:11:47.954Z,40.41
2018-04-11T16:14:16.437Z,40.85
2018-04-11T16:16:52.057Z,40.93
2018-04-11T16:22:04.071Z,42.04
2018-04-11T16:27:12.930Z,42.40
2018-04-11T16:29:43.055Z,43.18
2018-04-11T16:34:46.025Z,43.77
2018-04-11T16:37:15.170Z,43.56
2018-04-11T16:39:52.354Z,44.07
2018-04-11T16:42:22.603Z,44.62
2018-04-11T16:44:53.469Z,44.49
2018-04-11T16:47:27.920Z,44.52
2018-04-11T16:49:57.818Z,44.54
2018-04-11T16:52:28.800Z,44.80
2018-04-11T16:54:58.983Z,45.18
2018-04-11T16:57:27.514Z,45.13
2018-04-11T17:00:00.633Z,45.57
2018-04-11T17:02:28.904Z,45.52
2018-04-11T17:04:57.563Z,45.60
2018-04-11T17:07:31.617Z,45.76
2018-04-11T17:10:01.668Z,46.13
2018-04-11T17:12:31.777Z,46.04
2018-04-11T17:15:02.773Z,46.46
2018-04-11T17:17:34.136Z,45.96
2018-04-11T17:20:04.552Z,45.80
2018-04-11T17:25:33.977Z,45.87
2018-04-11T17:28:16.198Z,46.00
2018-04-11T17:30:59.112Z,46.03
2018-04-11T17:33:29.119Z,46.38
2018-04-11T17:35:57.613Z,46.43
2018-04-11T17:38:26.161Z,46.26
2018-04-11T17:40:57.195Z,46.62
2018-04-11T17:43:41.373Z,46.58
2018-04-11T17:46:09.825Z,46.71
2018-04-11T17:48:42.835Z,46.99
2018-04-11T17:51:13.816Z,47.37
2018-04-11T17:53:46.124Z,47.80
2018-04-11T17:56:19.531Z,48.34
2018-04-11T17:58:47.908Z,48.75
2018-04-11T18:01:17.901Z,49.27
2018-04-11T18:03:46.307Z,49.28
2018-04-11T18:06:16.482Z,49.70
2018-04-11T18:08:47.712Z,49.73
2018-04-11T18:11:16.168Z,50.07
2018-04-11T18:13:46.756Z,50.17
2018-04-11T18:16:19.184Z,50.02
2018-04-11T18:18:49.220Z,50.04
2018-04-11T18:21:17.522Z,50.32
2018-04-11T18:23:46.577Z,50.58
2018-04-11T18:26:20.391Z,50.68
2018-04-11T18:28:50.428Z,50.72
2018-04-11T18:31:20.630Z,50.63
2018-04-11T18:33:49.109Z,50.85
2018-04-11T18:36:17.626Z,51.19
2018-04-11T18:38:46.688Z,51.67
2018-04-11T18:41:15.077Z,51.86
2018-04-11T18:43:50.106Z,52.10
2018-04-11T18:46:21.103Z,52.27
2018-04-11T18:48:51.145Z,52.61
2018-04-11T18:51:19.567Z,52.75
2018-04-11T18:53:48.652Z,52.67
2018-04-11T18:56:18.060Z,52.89
2018-04-11T18:58:48.212Z,52.98
2018-04-11T19:01:18.369Z,53.17
2018-04-11T19:03:46.933Z,53.13
2018-04-11T19:06:16.084Z,53.42
2018-04-11T19:08:46.207Z,53.27
2018-04-11T19:11:19.423Z,53.25
2018-04-11T19:13:48.098Z,53.46
2018-04-11T19:16:19.065Z,53.51
2018-04-11T19:18:47.631Z,53.40
2018-04-11T19:21:17.875Z,53.52
2018-04-11T19:23:49.674Z,53.33
2018-04-11T19:26:18.175Z,53.70
2018-04-11T19:28:46.691Z,53.66
2018-04-11T19:31:16.287Z,53.67
2018-04-11T19:33:44.783Z,53.63
2018-04-11T19:36:13.579Z,53.85
2018-04-11T19:38:44.479Z,53.84
2018-04-11T19:41:14.590Z,53.97
2018-04-11T19:43:42.918Z,53.87
2018-04-11T19:46:15.850Z,54.03
2018-04-11T19:48:46.343Z,54.08
2018-04-11T19:51:17.416Z,54.16
2018-04-11T19:53:48.455Z,54.26
2018-04-11T19:56:18.632Z,54.44
2018-04-11T20:01:21.936Z,54.85
2018-04-11T20:03:52.199Z,54.85
2018-04-11T20:06:20.775Z,54.91
2018-04-11T20:08:49.220Z,55.14
2018-04-11T20:11:17.609Z,55.19
2018-04-11T20:13:48.990Z,55.31
2018-04-11T20:16:19.093Z,55.48
2018-04-11T20:18:47.511Z,55.64
2018-04-11T20:21:18.585Z,55.73
2018-04-11T20:23:47.653Z,55.92
2018-04-11T20:26:17.777Z,56.00
2018-04-11T20:28:46.868Z,56.13
2018-04-11T20:31:16.038Z,56.31
2018-04-11T20:33:45.167Z,56.40
2018-04-11T20:36:15.148Z,56.63
2018-04-11T20:38:43.567Z,56.69
2018-04-11T20:41:13.720Z,56.95
2018-04-11T20:43:43.735Z,57.08
2018-04-11T20:46:13.858Z,57.29
2018-04-11T20:48:44.719Z,57.55
2018-04-11T20:51:15.030Z,57.61
2018-04-11T20:53:46.589Z,57.89
2018-04-11T20:56:16.880Z,58.09
2018-04-11T20:58:47.933Z,58.31
2018-04-11T21:01:18.249Z,58.48
2018-04-11T21:03:46.734Z,58.61
2018-04-11T21:06:15.141Z,59.03
2018-04-11T21:08:45.245Z,59.07
2018-04-11T21:11:13.723Z,59.15
2018-04-11T21:13:42.057Z,59.55
2018-04-11T21:16:12.216Z,59.59
2018-04-11T21:18:42.278Z,59.66
2018-04-11T21:21:12.529Z,59.69
2018-04-11T21:23:42.600Z,59.86
2018-04-11T21:26:12.641Z,59.84
2018-04-11T21:28:40.921Z,60.21
2018-04-11T21:31:09.395Z,60.29
2018-04-11T21:33:39.705Z,60.45
2018-04-11T21:36:18.033Z,60.79
2018-04-11T21:38:47.230Z,60.79
2018-04-11T21:41:20.435Z,61.08
2018-04-11T21:43:53.478Z,61.30
2018-04-11T21:46:26.017Z,61.28
2018-04-11T21:48:56.060Z,61.29
2018-04-11T21:54:04.856Z,61.67
2018-04-11T21:56:34.059Z,61.96
2018-04-11T21:59:03.248Z,61.99
2018-04-11T22:01:34.205Z,62.22
2018-04-11T22:04:04.193Z,62.50
2018-04-11T22:06:32.786Z,62.69
2018-04-11T22:09:09.593Z,62.84
2018-04-11T22:11:44.847Z,62.89
2018-04-11T22:14:13.190Z,63.18
2018-04-11T22:16:43.373Z,63.53
2018-04-11T22:19:13.535Z,63.67
2018-04-11T22:21:44.680Z,63.97
2018-04-11T22:24:14.645Z,63.99
2018-04-11T22:26:44.886Z,63.85
2018-04-11T22:29:14.016Z,64.39
2018-04-11T22:31:44.307Z,64.01
2018-04-11T22:34:16.602Z,64.20
2018-04-11T22:36:46.590Z,64.62
2018-04-11T22:39:18.780Z,64.87
2018-04-11T22:41:47.266Z,64.88
2018-04-11T22:44:17.120Z,65.17
2018-04-11T22:46:47.170Z,65.25
2018-04-11T22:49:16.268Z,65.38
2018-04-11T22:51:47.497Z,65.49
2018-04-11T22:54:17.629Z,65.49
2018-04-11T22:56:45.913Z,65.77
2018-04-11T22:59:15.870Z,66.07
2018-04-11T23:01:46.049Z,66.20
2018-04-11T23:04:17.038Z,66.35
2018-04-11T23:06:45.282Z,66.66
2018-04-11T23:09:16.212Z,66.69
2018-04-11T23:11:46.302Z,66.95
2018-04-11T23:14:14.777Z,66.85
2018-04-11T23:16:44.892Z,66.94
2018-04-11T23:19:13.224Z,66.75
2018-04-11T23:21:42.320Z,67.00
2018-04-11T23:24:18.317Z,66.99
2018-04-11T23:26:47.387Z,67.08
2018-04-11T23:29:15.749Z,67.26
2018-04-11T23:31:45.852Z,67.29
2018-04-11T23:34:15.902Z,67.28
2018-04-11T23:36:46.044Z,67.47
2018-04-11T23:39:16.837Z,67.37
2018-04-11T23:41:46.897Z,67.35
2018-04-11T23:44:15.204Z,67.25
2018-04-11T23:46:45.240Z,67.09
2018-04-11T23:49:19.395Z,67.15
2018-04-11T23:51:49.427Z,66.99
2018-04-11T23:54:19.553Z,67.08
2018-04-11T23:56:49.565Z,67.13
2018-04-11T23:59:18.662Z,66.88
